Time;durP1;ratioP1;P1;durP2;ratioP2;P2;SDS_P1;SDS_P2;PMS_P1;PMS_P2;Temp;Humidity;BMP_temperature;BMP_pressure;BME280_temperature;BME280_humidity;BME280_pressure;Samples;Min_cycle;Max_cycle;Signal;HPM_P1;HPM_P2
2021/03/09 00:01:04;;;;;;;3.78;3.00;;;18.60;50.50;;;;;;5107349;28;20173;-55
2021/03/09 00:03:29;;;;;;;5.05;3.38;;;18.60;50.50;;;;;;5107434;28;20174;-56
2021/03/09 00:05:55;;;;;;;3.78;3.38;;;18.50;50.50;;;;;;5107647;28;20302;-54
2021/03/09 00:08:20;;;;;;;3.83;3.08;;;18.50;50.40;;;;;;5107491;28;20669;-56
2021/03/09 00:10:46;;;;;;;5.82;3.60;;;18.50;50.50;;;;;;5107071;28;20287;-56
2021/03/09 00:13:11;;;;;;;3.35;3.05;;;18.50;50.50;;;;;;5107414;28;20192;-57
2021/03/09 00:15:37;;;;;;;3.75;3.40;;;18.50;50.50;;;;;;5107214;28;20177;-57
2021/03/09 00:18:03;;;;;;;3.75;3.10;;;18.50;50.50;;;;;;5107181;28;20169;-54
2021/03/09 00:20:28;;;;;;;3.35;3.05;;;18.40;50.40;;;;;;5107280;28;20217;-58
2021/03/09 00:22:54;;;;;;;3.60;3.28;;;18.40;50.40;;;;;;5107050;28;20190;-58
2021/03/09 00:25:19;;;;;;;4.25;3.28;;;18.40;50.40;;;;;;5107291;28;20253;-59
2021/03/09 00:27:45;;;;;;;4.18;3.17;;;18.40;50.40;;;;;;5107451;28;20166;-56
2021/03/09 00:30:11;;;;;;;3.35;3.05;;;18.40;50.40;;;;;;5106968;28;20242;-58
2021/03/09 00:32:37;;;;;;;3.25;2.95;;;18.40;50.40;;;;;;5106925;28;20181;-55
2021/03/09 00:35:02;;;;;;;3.78;3.13;;;18.40;50.40;;;;;;5107103;28;20696;-55
2021/03/09 00:37:28;;;;;;;5.20;3.40;;;18.30;50.40;;;;;;5107216;28;20278;-56
2021/03/09 00:39:54;;;;;;;3.47;3.17;;;18.30;50.40;;;;;;5106892;28;20206;-54
2021/03/09 00:42:21;;;;;;;4.03;3.17;;;18.30;50.40;;;;;;5106906;28;20177;-53
2021/03/09 00:44:46;;;;;;;3.55;3.08;;;18.30;50.30;;;;;;5106938;28;20173;-59
2021/03/09 00:47:12;;;;;;;3.20;2.90;;;18.30;50.30;;;;;;5106768;28;20276;-58
2021/03/09 00:49:37;;;;;;;3.53;2.92;;;18.30;50.40;;;;;;5106215;28;20250;-57
2021/03/09 00:52:03;;;;;;;4.13;3.22;;;18.20;50.30;;;;;;5107054;28;20173;-57
2021/03/09 00:54:28;;;;;;;3.42;2.92;;;18.20;50.30;;;;;;5106461;28;20201;-60
2021/03/09 00:56:54;;;;;;;3.33;2.83;;;18.20;50.30;;;;;;5106716;28;20280;-58
2021/03/09 00:59:20;;;;;;;2.63;2.42;;;18.20;50.30;;;;;;5106646;28;20837;-58
2021/03/09 01:01:45;;;;;;;3.20;2.85;;;18.20;50.30;;;;;;5106194;28;20301;-53
2021/03/09 01:04:11;;;;;;;2.95;2.70;;;18.20;50.70;;;;;;5106347;28;20183;-56
2021/03/09 01:06:36;;;;;;;3.20;2.90;;;18.20;50.30;;;;;;5105029;28;20208;-55
2021/03/09 01:09:02;;;;;;;5.53;3.00;;;18.20;50.30;;;;;;5106030;28;20176;-57
2021/03/09 01:11:28;;;;;;;3.38;3.08;;;18.10;50.30;;;;;;5106199;28;20212;-58
2021/03/09 01:13:53;;;;;;;3.50;3.20;;;18.10;50.30;;;;;;5106008;28;21060;-58
2021/03/09 01:16:19;;;;;;;3.33;3.10;;;18.10;50.30;;;;;;5105638;28;20174;-58
2021/03/09 01:18:44;;;;;;;3.15;2.72;;;18.10;50.20;;;;;;5106271;28;20280;-56
2021/03/09 01:21:10;;;;;;;3.40;3.10;;;18.10;50.30;;;;;;5106134;28;20308;-56
2021/03/09 01:23:35;;;;;;;4.35;2.88;;;18.10;50.30;;;;;;5105891;28;20203;-59
2021/03/09 01:26:01;;;;;;;3.88;3.10;;;18.00;50.20;;;;;;5105897;28;20177;-57
2021/03/09 01:28:27;;;;;;;3.47;3.17;;;18.00;50.10;;;;;;5105641;28;20181;-54
2021/03/09 01:30:52;;;;;;;3.35;3.05;;;18.00;50.20;;;;;;5105713;28;20211;-55
2021/03/09 01:33:18;;;;;;;3.40;2.95;;;18.10;50.20;;;;;;5105626;28;20204;-58
2021/03/09 01:35:43;;;;;;;3.25;2.85;;;18.00;50.20;;;;;;5105703;28;20535;-54
2021/03/09 01:38:09;;;;;;;2.97;2.67;;;18.00;50.20;;;;;;5105496;28;20218;-56
2021/03/09 01:40:34;;;;;;;4.18;3.35;;;18.00;50.20;;;;;;5105326;28;20185;-53
2021/03/09 01:43:01;;;;;;;2.78;2.55;;;18.00;50.10;;;;;;5105419;28;20173;-54
2021/03/09 01:45:26;;;;;;;3.33;3.03;;;18.00;50.20;;;;;;5105800;28;20165;-54
2021/03/09 01:47:52;;;;;;;3.80;3.28;;;17.90;50.10;;;;;;5105517;28;20173;-55
2021/03/09 01:50:19;;;;;;;3.15;2.55;;;18.00;50.20;;;;;;5086969;28;20223;-56
2021/03/09 01:52:46;;;;;;;3.95;3.20;;;18.00;50.20;;;;;;5105294;28;20169;-57
2021/03/09 01:55:11;;;;;;;3.42;3.13;;;17.90;50.10;;;;;;5105223;28;20165;-60
2021/03/09 01:57:38;;;;;;;3.47;3.10;;;17.90;50.10;;;;;;5105190;28;20661;-54
2021/03/09 02:00:04;;;;;;;3.40;2.92;;;17.90;50.10;;;;;;5087166;28;20180;-54
2021/03/09 02:02:30;;;;;;;3.25;2.95;;;17.90;50.10;;;;;;5105244;28;20165;-58
2021/03/09 02:04:56;;;;;;;3.25;2.95;;;17.80;50.00;;;;;;5087145;28;20181;-57
2021/03/09 02:07:21;;;;;;;3.00;2.80;;;17.90;50.10;;;;;;5104958;28;20193;-56
2021/03/09 02:09:47;;;;;;;3.83;3.28;;;17.90;50.10;;;;;;5105222;28;20306;-55
2021/03/09 02:12:36;;;;;;;3.70;2.72;;;17.80;50.00;;;;;;5087360;28;20650;-56
2021/03/09 02:15:19;;;;;;;3.38;3.08;;;17.80;50.00;;;;;;5086901;28;20208;-58
2021/03/09 02:18:13;;;;;;;4.15;3.15;;;17.80;50.00;;;;;;5086357;28;20180;-57
2021/03/09 02:20:59;;;;;;;3.92;2.78;;;17.80;50.00;;;;;;5100899;28;20196;-56
2021/03/09 02:23:31;;;;;;;3.45;3.15;;;17.80;50.00;;;;;;5087896;28;20252;-54
2021/03/09 02:26:18;;;;;;;3.60;3.30;;;17.80;50.00;;;;;;5104657;28;20627;-57
2021/03/09 02:29:20;;;;;;;2.97;2.78;;;17.80;50.00;;;;;;5104904;28;20183;-58
2021/03/09 02:31:48;;;;;;;3.63;2.90;;;17.80;50.00;;;;;;5104397;28;20551;-53
2021/03/09 02:34:15;;;;;;;3.63;3.30;;;17.70;49.90;;;;;;5086536;28;20264;-51
2021/03/09 02:36:41;;;;;;;3.78;3.33;;;17.70;50.00;;;;;;5086982;28;20180;-53
2021/03/09 02:39:08;;;;;;;3.50;3.15;;;17.70;49.90;;;;;;5086529;28;20169;-51
2021/03/09 02:41:43;;;;;;;3.53;3.22;;;17.70;49.90;;;;;;5104648;28;20302;-53
2021/03/09 02:44:09;;;;;;;3.30;2.90;;;17.70;49.90;;;;;;5104288;28;20176;-57
2021/03/09 02:46:35;;;;;;;3.50;3.20;;;17.70;50.00;;;;;;5086337;28;20219;-56
2021/03/09 02:49:00;;;;;;;3.60;3.30;;;17.70;49.90;;;;;;5086265;28;20177;-56
2021/03/09 02:51:26;;;;;;;4.05;3.65;;;17.70;49.90;;;;;;5086459;28;20205;-57
2021/03/09 02:53:53;;;;;;;3.83;3.53;;;17.70;49.90;;;;;;5086426;28;20204;-57
2021/03/09 02:56:18;;;;;;;3.80;3.25;;;17.70;49.90;;;;;;5086264;28;20177;-51
2021/03/09 02:58:45;;;;;;;4.13;3.50;;;17.70;49.90;;;;;;5086282;28;20667;-53
2021/03/09 03:01:11;;;;;;;3.53;3.22;;;17.60;49.90;;;;;;5086237;28;20252;-54
2021/03/09 03:03:39;;;;;;;3.45;3.15;;;17.60;49.90;;;;;;5086111;28;20260;-56
2021/03/09 03:06:05;;;;;;;3.92;3.25;;;17.70;49.90;;;;;;5086128;28;20683;-54
2021/03/09 03:08:30;;;;;;;3.63;3.20;;;17.60;49.90;;;;;;5085679;28;20197;-52
2021/03/09 03:10:56;;;;;;;4.10;3.70;;;17.60;49.90;;;;;;5104301;28;20209;-55
2021/03/09 03:13:21;;;;;;;4.00;3.60;;;17.60;49.90;;;;;;5086173;28;20204;-54
2021/03/09 03:15:51;;;;;;;3.35;3.00;;;17.50;49.80;;;;;;5086366;28;20165;-54
2021/03/09 03:18:16;;;;;;;3.20;2.90;;;17.60;49.90;;;;;;5086012;28;20241;-54
2021/03/09 03:20:42;;;;;;;3.22;2.97;;;17.60;49.90;;;;;;5086235;28;20189;-56
2021/03/09 03:23:09;;;;;;;4.25;3.75;;;17.60;49.80;;;;;;5086084;28;20623;-55
2021/03/09 03:25:34;;;;;;;3.60;3.30;;;17.60;49.90;;;;;;5104253;28;20701;-54
2021/03/09 03:28:00;;;;;;;3.78;3.38;;;17.50;49.80;;;;;;5086220;28;20271;-57
2021/03/09 03:30:25;;;;;;;3.72;3.42;;;17.50;49.80;;;;;;5088508;28;20689;-56
2021/03/09 03:32:51;;;;;;;3.65;3.13;;;17.50;49.90;;;;;;5108147;28;20173;-52
2021/03/09 03:35:17;;;;;;;3.88;3.58;;;17.50;49.80;;;;;;5108137;28;20576;-50
2021/03/09 03:37:45;;;;;;;3.90;3.50;;;17.50;49.80;;;;;;5108115;28;20183;-53
2021/03/09 03:40:15;;;;;;;3.83;3.53;;;17.50;49.80;;;;;;5107912;28;20649;-57
2021/03/09 03:42:41;;;;;;;3.60;3.25;;;17.50;49.90;;;;;;5108279;28;20512;-56
2021/03/09 03:45:07;;;;;;;4.40;3.50;;;17.50;49.90;;;;;;5107910;28;20230;-53
2021/03/09 03:47:34;;;;;;;4.28;3.75;;;17.40;49.70;;;;;;5107821;28;20566;-59
2021/03/09 03:50:00;;;;;;;4.97;4.22;;;17.40;49.80;;;;;;5107546;28;20682;-57
2021/03/09 03:52:31;;;;;;;4.30;3.97;;;17.40;49.80;;;;;;5089877;28;20204;-58
2021/03/09 03:55:16;;;;;;;4.25;3.85;;;17.40;49.80;;;;;;5090402;28;20256;-55
2021/03/09 03:57:46;;;;;;;4.03;3.67;;;17.40;49.80;;;;;;5089345;28;20173;-57
2021/03/09 04:00:12;;;;;;;5.63;3.85;;;17.40;49.80;;;;;;5089993;28;20177;-54
2021/03/09 04:02:38;;;;;;;4.05;3.65;;;17.40;49.70;;;;;;5089396;28;20544;-52
2021/03/09 04:05:07;;;;;;;4.50;3.83;;;17.40;49.80;;;;;;5089185;28;20268;-57
2021/03/09 04:07:34;;;;;;;4.10;3.70;;;17.40;49.80;;;;;;5085698;28;20201;-55
2021/03/09 04:09:59;;;;;;;3.85;3.50;;;17.40;49.80;;;;;;5085506;28;20227;-53
2021/03/09 04:12:27;;;;;;;4.20;3.80;;;17.40;49.80;;;;;;5085465;28;20170;-54
2021/03/09 04:14:52;;;;;;;4.57;4.18;;;17.40;49.80;;;;;;5086011;28;20510;-53
2021/03/09 04:17:19;;;;;;;4.20;3.80;;;17.40;49.80;;;;;;5085696;28;20181;-55
2021/03/09 04:19:45;;;;;;;4.30;3.88;;;17.30;49.70;;;;;;5085422;28;20239;-56
2021/03/09 04:22:10;;;;;;;4.45;3.97;;;17.30;49.70;;;;;;5085838;28;20185;-57
2021/03/09 04:24:36;;;;;;;4.90;4.40;;;17.30;49.70;;;;;;5085651;28;20196;-56
2021/03/09 04:27:01;;;;;;;4.18;3.78;;;17.30;49.70;;;;;;5085482;28;20174;-57
2021/03/09 04:29:27;;;;;;;4.15;3.75;;;17.30;49.70;;;;;;5086834;28;20170;-52
2021/03/09 04:31:53;;;;;;;4.93;4.40;;;17.30;49.70;;;;;;5085342;28;20607;-49
2021/03/09 04:34:18;;;;;;;5.18;4.30;;;17.30;49.80;;;;;;5084945;28;20186;-53
2021/03/09 04:36:44;;;;;;;4.78;4.28;;;17.30;49.70;;;;;;5085270;28;20173;-52
2021/03/09 04:39:09;;;;;;;4.13;3.83;;;17.30;49.80;;;;;;5085393;28;20192;-55
2021/03/09 04:41:36;;;;;;;4.50;4.10;;;17.30;49.80;;;;;;5085165;28;20524;-56
2021/03/09 04:44:02;;;;;;;6.57;4.43;;;17.20;49.70;;;;;;5086611;28;20261;-53
2021/03/09 04:46:28;;;;;;;4.35;3.95;;;17.20;49.80;;;;;;5085325;28;20257;-56
2021/03/09 04:48:53;;;;;;;5.35;4.53;;;17.20;49.70;;;;;;5085357;28;20170;-58
2021/03/09 04:51:19;;;;;;;4.70;4.30;;;17.20;49.70;;;;;;5085665;28;20220;-57
2021/03/09 04:53:45;;;;;;;4.72;4.32;;;17.20;49.80;;;;;;5085197;28;20177;-57
2021/03/09 04:56:10;;;;;;;4.72;4.32;;;17.20;49.70;;;;;;5086428;28;20257;-55
2021/03/09 04:58:36;;;;;;;4.40;4.00;;;17.20;49.70;;;;;;5086104;28;20658;-57
2021/03/09 05:01:02;;;;;;;4.50;4.10;;;17.20;49.80;;;;;;5086368;28;20184;-57
2021/03/09 05:03:28;;;;;;;4.93;4.50;;;17.20;49.80;;;;;;5086175;28;20172;-58
2021/03/09 05:05:53;;;;;;;4.78;4.38;;;17.20;49.80;;;;;;5086739;28;20307;-58
2021/03/09 05:08:19;;;;;;;4.78;4.38;;;17.20;49.80;;;;;;5102456;28;20192;-58
2021/03/09 05:10:45;;;;;;;4.57;4.18;;;17.20;49.80;;;;;;5106340;28;20768;-54
2021/03/09 05:13:11;;;;;;;4.28;3.90;;;17.20;49.80;;;;;;5106274;28;20256;-57
2021/03/09 05:15:36;;;;;;;5.32;4.82;;;17.10;49.70;;;;;;5106276;28;20250;-57
2021/03/09 05:18:02;;;;;;;4.88;4.47;;;17.20;49.80;;;;;;5106697;28;20174;-56
2021/03/09 05:20:28;;;;;;;4.60;4.20;;;17.10;49.80;;;;;;5106416;28;20181;-56
2021/03/09 05:22:53;;;;;;;4.22;3.88;;;17.20;49.80;;;;;;5106265;28;20903;-55
2021/03/09 05:25:19;;;;;;;4.47;4.13;;;17.10;49.90;;;;;;5105817;28;20236;-54
2021/03/09 05:27:47;;;;;;;4.60;4.20;;;17.10;49.80;;;;;;5106052;28;20169;-55
2021/03/09 05:30:13;;;;;;;4.30;4.00;;;17.10;49.80;;;;;;5105824;28;20209;-58
2021/03/09 05:32:38;;;;;;;5.03;4.63;;;17.10;49.80;;;;;;5105879;28;20173;-53
2021/03/09 05:35:05;;;;;;;5.05;4.57;;;17.10;49.80;;;;;;5105685;28;20194;-52
2021/03/09 05:37:30;;;;;;;5.32;4.82;;;17.10;49.80;;;;;;5105398;28;21072;-54
2021/03/09 05:39:56;;;;;;;5.57;5.03;;;17.10;49.80;;;;;;5105656;28;20287;-52
2021/03/09 05:42:21;;;;;;;5.40;4.90;;;17.10;49.80;;;;;;5105555;28;20526;-57
2021/03/09 05:44:47;;;;;;;5.10;4.38;;;17.10;49.80;;;;;;5087457;28;20169;-55
2021/03/09 05:47:13;;;;;;;5.28;4.78;;;17.00;49.80;;;;;;5105593;28;20243;-57
2021/03/09 05:49:38;;;;;;;4.93;4.53;;;17.10;49.90;;;;;;5105137;28;20301;-57
2021/03/09 05:52:04;;;;;;;4.35;3.97;;;17.00;49.80;;;;;;5104761;28;20174;-56
2021/03/09 05:54:29;;;;;;;4.78;4.38;;;17.00;49.80;;;;;;5105516;28;20498;-55
2021/03/09 05:56:55;;;;;;;4.82;4.43;;;17.00;49.80;;;;;;5105501;28;20948;-53
2021/03/09 05:59:21;;;;;;;4.85;4.38;;;17.00;49.80;;;;;;5105055;28;20351;-56
2021/03/09 06:01:46;;;;;;;4.65;4.20;;;17.00;49.80;;;;;;5105285;28;20179;-49
2021/03/09 06:04:12;;;;;;;4.70;4.30;;;17.00;49.90;;;;;;5104799;28;20177;-52
2021/03/09 06:06:37;;;;;;;4.32;3.90;;;17.00;49.90;;;;;;5105153;28;20226;-53
2021/03/09 06:09:23;;;;;;;4.20;3.90;;;17.00;49.90;;;;;;5105008;28;20622;-54
2021/03/09 06:12:11;;;;;;;4.30;3.97;;;17.10;50.00;;;;;;5090287;28;20629;-53
2021/03/09 06:14:43;;;;;;;4.28;3.90;;;17.10;50.10;;;;;;5104759;28;20970;-57
2021/03/09 06:17:13;;;;;;;3.75;3.45;;;17.20;50.10;;;;;;5105545;28;20177;-56
2021/03/09 06:19:41;;;;;;;4.40;4.00;;;17.30;49.70;;;;;;5105166;28;20169;-58
2021/03/09 06:22:07;;;;;;;3.75;3.45;;;17.50;49.70;;;;;;5105041;28;20257;-55
2021/03/09 06:24:33;;;;;;;3.65;3.35;;;17.60;49.60;;;;;;5105037;28;20606;-56
2021/03/09 06:26:58;;;;;;;4.28;3.88;;;17.70;49.40;;;;;;5087108;28;20233;-58
2021/03/09 06:29:24;;;;;;;3.90;3.60;;;17.80;49.10;;;;;;5105010;28;20544;-56
2021/03/09 06:31:49;;;;;;;4.28;3.58;;;18.00;48.90;;;;;;5104882;28;20177;-55
2021/03/09 06:34:21;;;;;;;3.83;3.42;;;18.20;48.80;;;;;;5104703;28;20181;-58
2021/03/09 06:37:07;;;;;;;3.75;3.45;;;18.20;48.60;;;;;;5104898;28;20165;-57
2021/03/09 06:39:54;;;;;;;3.75;3.45;;;18.30;48.50;;;;;;5104661;28;20183;-57
2021/03/09 06:42:25;;;;;;;4.65;3.42;;;18.40;48.50;;;;;;5104196;28;20181;-56
2021/03/09 06:45:08;;;;;;;3.78;3.47;;;18.40;48.20;;;;;;5104952;28;20181;-58
2021/03/09 06:47:33;;;;;;;3.80;3.50;;;18.50;48.20;;;;;;5104465;28;20168;-58
2021/03/09 06:49:59;;;;;;;3.50;3.20;;;18.60;48.20;;;;;;5104453;28;20201;-56
2021/03/09 06:52:25;;;;;;;4.40;4.00;;;18.50;48.10;;;;;;5104431;28;20541;-56
2021/03/09 06:54:52;;;;;;;4.20;3.90;;;18.50;48.10;;;;;;5104357;28;20177;-51
2021/03/09 06:57:18;;;;;;;3.83;3.47;;;18.50;48.10;;;;;;5104374;28;20192;-58
2021/03/09 06:59:48;;;;;;;4.65;4.25;;;18.40;48.20;;;;;;5104728;28;20563;-58
2021/03/09 07:02:19;;;;;;;4.15;3.75;;;18.30;48.20;;;;;;5104101;28;20179;-57
2021/03/09 07:04:50;;;;;;;4.15;3.85;;;18.30;48.40;;;;;;5105934;28;20283;-53
2021/03/09 07:07:21;;;;;;;3.97;3.67;;;18.20;48.50;;;;;;5108185;28;20509;-54
2021/03/09 07:10:03;;;;;;;4.15;3.85;;;18.10;48.60;;;;;;5108741;28;20204;-57
2021/03/09 07:12:29;;;;;;;3.90;3.60;;;18.00;48.70;;;;;;5108411;28;20511;-56
2021/03/09 07:14:54;;;;;;;3.75;3.45;;;18.00;48.90;;;;;;5108533;28;20188;-57
2021/03/09 07:17:27;;;;;;;4.40;4.00;;;18.00;49.00;;;;;;5108465;28;20221;-57
2021/03/09 07:19:54;;;;;;;3.95;3.65;;;17.90;49.00;;;;;;5107890;28;20242;-57
2021/03/09 07:22:21;;;;;;;4.47;4.13;;;17.80;49.00;;;;;;5108326;28;20279;-59
2021/03/09 07:25:21;;;;;;;4.43;4.03;;;17.80;49.10;;;;;;5108184;28;20181;-58
2021/03/09 07:28:03;;;;;;;4.30;4.00;;;17.80;49.20;;;;;;5090136;28;21074;-56
2021/03/09 07:30:36;;;;;;;4.85;4.45;;;17.70;49.20;;;;;;5092025;28;20674;-53
2021/03/09 07:33:01;;;;;;;4.53;4.15;;;17.60;49.30;;;;;;5107976;28;20173;-55
2021/03/09 07:35:28;;;;;;;4.53;4.20;;;17.70;49.50;;;;;;5107848;28;20173;-53
2021/03/09 07:37:53;;;;;;;4.45;4.05;;;17.70;49.50;;;;;;5108228;28;20192;-53
2021/03/09 07:40:23;;;;;;;4.53;4.13;;;17.70;49.50;;;;;;5107772;28;20185;-57
2021/03/09 07:42:48;;;;;;;4.45;4.05;;;17.70;49.50;;;;;;5107828;28;20180;-55
2021/03/09 07:45:15;;;;;;;4.70;4.40;;;17.70;49.40;;;;;;5107960;28;20202;-63
2021/03/09 08:03:37;;;;;;;9.75;7.55;;;17.60;50.40;;;;;;5346466;22;20240;-53
2021/03/09 08:06:15;;;;;;;10.75;6.10;;;17.70;51.10;;;;;;5007593;28;20231;-63
2021/03/09 08:08:47;;;;;;;7.45;6.30;;;17.70;51.10;;;;;;5006556;28;20188;-62
2021/03/09 08:11:19;;;;;;;8.60;5.97;;;17.70;50.80;;;;;;5007420;28;20216;-63
2021/03/09 08:14:08;;;;;;;7.47;6.68;;;17.80;51.10;;;;;;5006530;28;20626;-63
2021/03/09 08:16:34;;;;;;;6.82;5.50;;;17.80;51.00;;;;;;4996320;28;20196;-63
2021/03/09 08:19:02;;;;;;;8.70;6.60;;;17.70;51.70;;;;;;5006791;28;20176;-61
2021/03/09 08:21:47;;;;;;;7.47;5.70;;;17.70;51.10;;;;;;5006207;28;20648;-62
2021/03/09 08:24:13;;;;;;;10.30;6.18;;;17.70;51.10;;;;;;5004850;28;20260;-62
2021/03/09 08:26:38;;;;;;;8.38;6.43;;;17.70;51.30;;;;;;5005007;28;20283;-62
2021/03/09 08:29:29;;;;;;;7.72;6.63;;;17.70;51.30;;;;;;5006294;28;20537;-61
2021/03/09 08:32:23;;;;;;;7.75;6.13;;;17.70;51.50;;;;;;5004708;28;20181;-60
2021/03/09 08:35:09;;;;;;;7.50;5.57;;;17.70;51.70;;;;;;5006798;28;20168;-62
2021/03/09 08:37:35;;;;;;;6.40;5.65;;;17.70;51.60;;;;;;4994154;28;20482;-61
2021/03/09 08:40:14;;;;;;;8.40;5.97;;;17.70;51.60;;;;;;5004639;28;20554;-58
2021/03/09 08:43:01;;;;;;;7.40;6.13;;;17.70;51.60;;;;;;5005061;28;20256;-60
2021/03/09 08:46:10;;;;;;;5.95;5.32;;;17.70;51.50;;;;;;5006188;28;20172;-62
2021/03/09 08:48:45;;;;;;;6.38;5.57;;;17.70;51.60;;;;;;4994736;28;20196;-61
2021/03/09 08:51:40;;;;;;;5.90;5.35;;;17.70;51.70;;;;;;5005864;28;20211;-65
2021/03/09 08:54:28;;;;;;;6.20;5.40;;;17.70;51.90;;;;;;5005835;28;20223;-59
2021/03/09 08:56:55;;;;;;;8.93;5.20;;;17.70;51.90;;;;;;5005518;28;20176;-59
2021/03/09 08:59:22;;;;;;;5.20;4.70;;;17.70;52.10;;;;;;5005847;28;20256;-59
2021/03/09 09:01:48;;;;;;;7.57;5.22;;;17.70;51.90;;;;;;5003881;28;20212;-59
2021/03/09 09:04:14;;;;;;;6.97;5.00;;;17.70;51.80;;;;;;5004235;28;20250;-65
2021/03/09 09:06:40;;;;;;;9.23;5.47;;;17.80;51.80;;;;;;5005749;28;20191;-61
2021/03/09 09:09:06;;;;;;;9.18;5.50;;;17.90;52.20;;;;;;5005388;28;20630;-60
2021/03/09 09:11:32;;;;;;;5.93;4.68;;;18.00;52.00;;;;;;5003899;28;20220;-62
2021/03/09 09:13:57;;;;;;;7.18;5.07;;;18.10;51.80;;;;;;5003836;28;20173;-62
2021/03/09 09:16:23;;;;;;;7.60;4.82;;;18.20;51.60;;;;;;5005216;28;20263;-61
2021/03/09 09:18:48;;;;;;;6.90;4.68;;;18.40;51.50;;;;;;5004272;28;20204;-60
2021/03/09 09:21:14;;;;;;;5.20;4.13;;;18.60;51.10;;;;;;5005360;28;20183;-60
2021/03/09 09:23:39;;;;;;;5.28;4.32;;;19.00;50.50;;;;;;5004976;28;20173;-61
2021/03/09 09:26:11;;;;;;;5.53;4.32;;;19.30;50.00;;;;;;5003970;28;20188;-60
2021/03/09 09:28:41;;;;;;;5.88;4.20;;;19.50;49.40;;;;;;5003040;28;20180;-60
2021/03/09 09:31:12;;;;;;;4.93;3.95;;;19.70;49.10;;;;;;5003993;28;20292;-62
2021/03/09 10:25:10;;;;;;;4.35;3.53;;;19.60;49.60;;;;;;5685946;23;20319;-60
2021/03/09 10:27:35;;;;;;;4.97;3.72;;;19.60;49.80;;;;;;4946724;28;20312;-62
2021/03/09 10:30:01;;;;;;;4.55;3.47;;;19.60;49.60;;;;;;4965279;28;20635;-62
2021/03/09 10:32:27;;;;;;;4.55;3.20;;;19.60;49.70;;;;;;4947667;28;20178;-63
2021/03/09 10:34:54;;;;;;;3.15;2.85;;;19.60;49.60;;;;;;4947343;28;20178;-63
2021/03/09 10:37:32;;;;;;;5.55;3.65;;;19.70;49.50;;;;;;4965335;28;20422;-62
2021/03/09 10:39:59;;;;;;;5.25;3.55;;;19.70;49.40;;;;;;4964652;28;20173;-64
2021/03/09 10:42:36;;;;;;;3.30;2.78;;;19.80;49.40;;;;;;4965179;28;20185;-63
2021/03/09 10:45:20;;;;;;;3.25;2.90;;;19.80;49.30;;;;;;4948028;28;20213;-66
2021/03/09 10:47:59;;;;;;;5.53;3.03;;;19.70;49.30;;;;;;4965009;28;20209;-63
2021/03/09 10:50:27;;;;;;;5.25;2.60;;;19.70;49.40;;;;;;4967991;28;20216;-63
2021/03/09 10:52:52;;;;;;;3.78;2.92;;;19.60;49.50;;;;;;4983046;28;20681;-63
2021/03/09 10:55:18;;;;;;;5.15;3.17;;;19.60;49.50;;;;;;4971436;28;20185;-63
2021/03/09 10:57:44;;;;;;;2.58;2.38;;;19.60;49.50;;;;;;4969626;28;20178;-63
2021/03/09 11:00:12;;;;;;;3.03;2.72;;;19.60;49.50;;;;;;4981741;28;20189;-63
2021/03/09 11:02:38;;;;;;;5.13;2.85;;;19.70;49.40;;;;;;4952471;28;20197;-63
2021/03/09 11:05:04;;;;;;;3.08;2.83;;;19.80;49.20;;;;;;4964768;28;20186;-63
2021/03/09 11:07:30;;;;;;;3.45;2.42;;;19.80;49.00;;;;;;4982874;28;20192;-62
2021/03/09 11:09:55;;;;;;;3.60;2.72;;;19.90;48.90;;;;;;4983988;28;20213;-63
2021/03/09 11:12:21;;;;;;;2.75;2.55;;;20.10;48.70;;;;;;4984166;28;20550;-63
2021/03/09 11:14:46;;;;;;;3.63;2.53;;;20.20;48.50;;;;;;4966557;28;20204;-63
2021/03/09 11:17:12;;;;;;;2.95;2.70;;;20.30;48.30;;;;;;4966265;28;20391;-63
2021/03/09 11:19:38;;;;;;;2.90;2.63;;;20.40;48.10;;;;;;4984127;28;20177;-63
2021/03/09 11:22:03;;;;;;;4.53;2.63;;;20.50;48.00;;;;;;4984076;28;20664;-64
2021/03/09 11:24:29;;;;;;;2.70;2.50;;;20.60;47.90;;;;;;4966479;28;20653;-64
2021/03/09 11:26:59;;;;;;;3.05;2.22;;;20.60;47.70;;;;;;4966142;28;20240;-62
2021/03/09 11:29:26;;;;;;;2.70;2.42;;;20.70;47.60;;;;;;4967536;28;20181;-64
2021/03/09 11:31:51;;;;;;;3.05;2.35;;;20.80;47.50;;;;;;4983687;28;21140;-63
2021/03/09 11:34:17;;;;;;;2.75;2.55;;;20.80;47.50;;;;;;4983975;28;20173;-64
2021/03/09 11:36:42;;;;;;;2.65;2.40;;;20.80;47.40;;;;;;4984196;28;20216;-63
2021/03/09 11:39:08;;;;;;;3.20;2.30;;;20.80;47.40;;;;;;4966096;28;20181;-62
2021/03/09 11:41:33;;;;;;;5.15;2.20;;;20.80;47.40;;;;;;4983871;28;20585;-63
2021/03/09 11:43:59;;;;;;;2.42;2.13;;;20.80;47.40;;;;;;4965877;28;20181;-64
2021/03/09 11:46:25;;;;;;;2.45;2.17;;;20.80;47.40;;;;;;4983653;28;20256;-66
2021/03/09 11:48:50;;;;;;;5.30;2.30;;;20.80;47.40;;;;;;4983805;28;20181;-65
2021/03/09 11:51:16;;;;;;;4.35;2.13;;;20.70;47.50;;;;;;4968300;28;20200;-63
2021/03/09 11:53:42;;;;;;;2.08;1.98;;;20.60;47.80;;;;;;4986718;28;20189;-61
2021/03/09 11:56:08;;;;;;;3.38;2.13;;;20.50;47.90;;;;;;4986992;28;20600;-62
2021/03/09 11:58:33;;;;;;;2.50;2.30;;;20.50;48.10;;;;;;4969230;28;20189;-62
2021/03/09 12:00:59;;;;;;;3.03;1.80;;;20.40;48.30;;;;;;4987053;28;20645;-63
2021/03/09 12:03:25;;;;;;;4.25;1.75;;;20.40;48.40;;;;;;4986831;28;20232;-64
2021/03/09 12:05:50;;;;;;;2.80;2.25;;;20.40;48.50;;;;;;4969299;28;20173;-64
2021/03/09 12:08:16;;;;;;;3.60;1.90;;;20.30;48.60;;;;;;4969804;28;20631;-63
2021/03/09 12:10:41;;;;;;;2.22;1.80;;;20.30;48.60;;;;;;4987296;28;20291;-63
2021/03/09 12:13:07;;;;;;;2.35;1.80;;;20.30;48.60;;;;;;4987009;28;20173;-63
2021/03/09 12:15:33;;;;;;;4.93;1.90;;;20.20;48.80;;;;;;4969339;28;20220;-63
2021/03/09 12:17:58;;;;;;;2.05;1.73;;;20.20;48.90;;;;;;4986730;28;20530;-64
2021/03/09 12:20:25;;;;;;;2.33;2.13;;;20.10;48.90;;;;;;4968969;28;20232;-63
2021/03/09 12:22:50;;;;;;;2.30;1.70;;;20.00;49.20;;;;;;4986807;28;20189;-64
2021/03/09 12:25:16;;;;;;;2.50;2.10;;;20.00;49.30;;;;;;4986798;28;20169;-64
2021/03/09 12:27:42;;;;;;;2.13;1.80;;;20.00;49.30;;;;;;4986726;28;20227;-62
2021/03/09 12:30:08;;;;;;;1.95;1.60;;;20.00;49.30;;;;;;4986696;28;20206;-62
2021/03/09 12:32:34;;;;;;;2.92;1.73;;;19.90;49.30;;;;;;4986544;28;20188;-63
2021/03/09 12:34:59;;;;;;;4.03;2.05;;;19.80;49.30;;;;;;4969114;28;20188;-63
2021/03/09 12:37:25;;;;;;;2.53;1.50;;;19.90;49.40;;;;;;4968750;28;20188;-63
2021/03/09 12:39:51;;;;;;;2.42;1.70;;;19.90;49.40;;;;;;4986663;28;20479;-62
2021/03/09 12:42:16;;;;;;;3.47;1.70;;;20.00;49.40;;;;;;4986529;28;20177;-62
2021/03/09 12:44:42;;;;;;;2.47;1.70;;;20.00;49.30;;;;;;4986155;28;21135;-63
2021/03/09 12:47:07;;;;;;;1.92;1.60;;;20.10;49.20;;;;;;4986498;28;21115;-63
2021/03/09 12:49:34;;;;;;;2.78;1.80;;;20.10;49.20;;;;;;4986138;28;20174;-65
2021/03/09 12:52:00;;;;;;;1.73;1.42;;;20.20;49.10;;;;;;4986050;28;20205;-65
2021/03/09 12:54:26;;;;;;;3.05;1.73;;;20.20;49.00;;;;;;4985835;28;20181;-65
2021/03/09 12:56:51;;;;;;;3.25;1.80;;;20.30;49.10;;;;;;4968313;28;20623;-64
2021/03/09 12:59:17;;;;;;;2.92;1.45;;;20.30;49.00;;;;;;4985234;28;20173;-64
2021/03/09 13:01:42;;;;;;;3.65;1.90;;;20.30;49.00;;;;;;4985441;28;20188;-64
2021/03/09 13:04:08;;;;;;;1.60;1.30;;;20.30;49.00;;;;;;4985824;28;20208;-64
2021/03/09 13:06:33;;;;;;;1.67;1.35;;;20.30;48.90;;;;;;4985451;28;20181;-64
2021/03/09 13:09:01;;;;;;;1.80;1.50;;;20.30;48.90;;;;;;4985806;28;20961;-64
2021/03/09 13:11:27;;;;;;;1.50;1.40;;;20.30;49.00;;;;;;4985613;28;20275;-64
2021/03/09 13:13:52;;;;;;;2.00;1.73;;;20.30;48.80;;;;;;4985634;28;20636;-64
2021/03/09 13:16:18;;;;;;;1.35;1.25;;;20.40;48.80;;;;;;4985666;28;20208;-64
2021/03/09 13:18:44;;;;;;;1.95;1.33;;;20.40;48.70;;;;;;4968193;28;20925;-64
2021/03/09 13:21:09;;;;;;;1.42;1.33;;;20.40;48.70;;;;;;4985663;28;20245;-64
2021/03/09 13:23:35;;;;;;;1.50;1.40;;;20.50;48.70;;;;;;4985520;28;20173;-65
2021/03/09 13:26:00;;;;;;;2.25;1.40;;;20.40;48.70;;;;;;4985307;28;20225;-64
2021/03/09 13:28:26;;;;;;;1.48;1.30;;;20.30;48.80;;;;;;4967531;28;20277;-64
2021/03/09 13:30:52;;;;;;;1.70;1.27;;;20.30;48.90;;;;;;4985401;28;20296;-63
2021/03/09 13:33:18;;;;;;;1.27;1.17;;;20.20;49.00;;;;;;4968206;28;20181;-66
2021/03/09 13:35:43;;;;;;;1.60;1.50;;;20.10;49.10;;;;;;4967450;28;20224;-64
2021/03/09 13:38:09;;;;;;;1.33;1.23;;;20.00;49.20;;;;;;4985387;28;20686;-65
2021/03/09 13:40:34;;;;;;;2.60;1.15;;;20.00;49.30;;;;;;4985345;28;20181;-62
2021/03/09 13:43:00;;;;;;;1.95;1.08;;;20.00;49.30;;;;;;4985270;28;20630;-63
2021/03/09 13:45:26;;;;;;;1.40;1.00;;;20.00;49.30;;;;;;4984958;28;20533;-64
2021/03/09 13:47:52;;;;;;;1.48;1.25;;;20.00;49.30;;;;;;4967889;28;20656;-63
2021/03/09 13:50:17;;;;;;;0.90;0.90;;;20.00;49.20;;;;;;4984781;28;20213;-63
2021/03/09 13:52:43;;;;;;;1.65;1.33;;;20.10;49.30;;;;;;4967233;28;20618;-65
2021/03/09 13:55:10;;;;;;;1.00;1.00;;;20.10;49.20;;;;;;4985497;28;20634;-64
2021/03/09 13:57:36;;;;;;;0.82;0.82;;;20.10;49.00;;;;;;4967373;28;20180;-63
2021/03/09 14:00:02;;;;;;;1.73;1.00;;;20.10;49.00;;;;;;4967845;28;20185;-64